createdAt,value
2018-03-02T00:01:40.764Z,6.37
2018-03-02T00:04:08.021Z,6.07
2018-03-02T00:06:35.171Z,7.40
2018-03-02T00:09:02.013Z,6.70
2018-03-02T00:11:28.872Z,8.02
2018-03-02T00:13:56.112Z,10.45
2018-03-02T00:16:23.005Z,7.55
2018-03-02T00:18:49.808Z,12.05
2018-03-02T00:21:16.679Z,10.73
2018-03-02T00:23:43.491Z,6.70
2018-03-02T00:26:10.337Z,8.77
2018-03-02T00:28:37.164Z,8.90
2018-03-02T00:31:04.319Z,10.32
2018-03-02T00:33:31.493Z,8.43
2018-03-02T00:35:58.408Z,9.10
2018-03-02T00:38:25.310Z,7.32
2018-03-02T00:40:52.153Z,6.97
2018-03-02T00:43:19.013Z,8.17
2018-03-02T00:45:45.816Z,9.80
2018-03-02T00:48:12.692Z,9.30
2018-03-02T00:50:39.886Z,6.78
2018-03-02T00:53:06.711Z,8.57
2018-03-02T00:55:34.003Z,11.50
2018-03-02T00:58:00.882Z,9.18
2018-03-02T01:00:27.713Z,10.60
2018-03-02T01:02:54.823Z,7.65
2018-03-02T01:05:21.680Z,9.48
2018-03-02T01:07:48.802Z,7.90
2018-03-02T01:10:15.965Z,8.13
2018-03-02T01:12:42.845Z,11.32
2018-03-02T01:15:09.749Z,8.77
2018-03-02T01:17:36.566Z,8.38
2018-03-02T01:20:03.453Z,8.63
2018-03-02T01:22:30.270Z,8.75
2018-03-02T01:24:57.095Z,11.63
2018-03-02T01:27:23.937Z,9.63
2018-03-02T01:29:51.116Z,11.98
2018-03-02T01:32:17.935Z,10.80
2018-03-02T01:34:45.103Z,8.32
2018-03-02T01:37:12.232Z,12.70
2018-03-02T01:39:39.408Z,11.25
2018-03-02T01:42:06.268Z,9.82
2018-03-02T01:44:33.075Z,11.60
2018-03-02T01:47:00.138Z,12.40
2018-03-02T01:49:27.300Z,11.07
2018-03-02T01:51:54.110Z,12.00
2018-03-02T01:54:20.981Z,12.00
2018-03-02T01:56:48.122Z,10.67
2018-03-02T01:59:14.975Z,11.75
2018-03-02T02:01:41.834Z,12.73
2018-03-02T02:04:08.964Z,12.20
2018-03-02T02:06:36.110Z,11.60
2018-03-02T02:09:03.158Z,11.35
2018-03-02T02:11:30.038Z,13.18
2018-03-02T02:13:57.155Z,12.57
2018-03-02T02:16:24.303Z,12.25
2018-03-02T02:18:51.146Z,10.90
2018-03-02T02:21:18.385Z,12.52
2018-03-02T02:23:45.225Z,12.90
2018-03-02T02:26:12.084Z,12.32
2018-03-02T02:28:38.886Z,16.70
2018-03-02T02:31:05.696Z,13.03
2018-03-02T02:33:32.536Z,15.17
2018-03-02T02:35:59.342Z,11.17
2018-03-02T02:38:26.506Z,13.45
2018-03-02T02:40:53.386Z,12.05
2018-03-02T02:43:20.262Z,12.50
2018-03-02T02:45:47.074Z,13.68
2018-03-02T02:48:13.948Z,14.75
2018-03-02T02:50:40.799Z,12.93
2018-03-02T02:53:07.661Z,13.20
2018-03-02T02:55:34.819Z,12.60
2018-03-02T02:58:01.688Z,13.80
2018-03-02T03:00:28.528Z,13.85
2018-03-02T03:02:55.401Z,16.40
2018-03-02T03:05:22.323Z,14.27
2018-03-02T03:07:49.449Z,17.00
2018-03-02T03:10:16.307Z,13.77
2018-03-02T03:12:43.126Z,16.00
2018-03-02T03:15:10.210Z,17.58
2018-03-02T03:17:37.077Z,15.63
2018-03-02T03:20:04.281Z,13.55
2018-03-02T03:22:31.126Z,13.85
2018-03-02T03:24:57.962Z,17.00
2018-03-02T03:27:25.011Z,15.57
2018-03-02T03:29:52.162Z,14.63
2018-03-02T03:32:19.310Z,14.07
2018-03-02T03:34:46.137Z,14.77
2018-03-02T03:37:13.307Z,14.10
2018-03-02T03:39:40.159Z,14.48
2018-03-02T03:42:07.202Z,15.57
2018-03-02T03:44:34.080Z,14.82
2018-03-02T03:47:00.935Z,13.43
2018-03-02T03:49:28.035Z,16.05
2018-03-02T03:51:54.903Z,16.40
2018-03-02T03:54:22.132Z,12.98
2018-03-02T03:56:49.384Z,14.70
2018-03-02T03:59:16.230Z,13.52
2018-03-02T04:01:43.141Z,15.00
2018-03-02T04:04:10.324Z,13.50
2018-03-02T04:06:37.174Z,15.30
2018-03-02T04:09:04.027Z,21.40
2018-03-02T04:11:31.158Z,14.93
2018-03-02T04:13:57.983Z,15.75
2018-03-02T04:16:25.152Z,13.52
2018-03-02T04:18:52.299Z,11.95
2018-03-02T04:21:19.136Z,14.80
2018-03-02T04:23:46.299Z,12.98
2018-03-02T04:26:13.443Z,13.50
2018-03-02T04:28:40.591Z,14.23
2018-03-02T04:31:07.748Z,18.02
2018-03-02T04:33:34.584Z,13.82
2018-03-02T04:36:01.448Z,14.55
2018-03-02T04:38:28.578Z,15.10
2018-03-02T04:40:55.694Z,13.40
2018-03-02T04:43:22.883Z,16.12
2018-03-02T04:45:49.719Z,14.45
2018-03-02T04:48:16.770Z,19.17
2018-03-02T04:50:43.619Z,11.02
2018-03-02T04:53:10.446Z,19.10
2018-03-02T04:55:37.520Z,15.90
2018-03-02T04:58:04.392Z,15.98
2018-03-02T05:00:31.219Z,14.32
2018-03-02T05:02:58.035Z,15.70
2018-03-02T05:05:24.849Z,17.25
2018-03-02T05:07:51.726Z,13.32
2018-03-02T05:10:18.554Z,16.25
2018-03-02T05:12:45.387Z,14.63
2018-03-02T05:15:12.271Z,15.67
2018-03-02T05:17:39.109Z,18.98
2018-03-02T05:20:06.306Z,17.90
2018-03-02T05:22:33.168Z,16.60
2018-03-02T05:25:00.016Z,15.35
2018-03-02T05:27:26.936Z,14.38
2018-03-02T05:29:53.824Z,16.33
2018-03-02T05:32:20.664Z,13.32
2018-03-02T05:34:47.532Z,15.27
2018-03-02T05:37:14.658Z,16.40
2018-03-02T05:39:42.286Z,15.93
2018-03-02T05:42:09.371Z,13.13
2018-03-02T05:44:36.230Z,15.35
2018-03-02T05:47:03.068Z,16.08
2018-03-02T05:49:29.875Z,16.27
2018-03-02T05:51:56.743Z,17.73
2018-03-02T05:54:23.549Z,16.70
2018-03-02T05:56:50.403Z,20.73
2018-03-02T05:59:17.270Z,17.30
2018-03-02T06:01:44.429Z,17.15
2018-03-02T06:04:11.269Z,17.62
2018-03-02T06:06:38.417Z,15.60
2018-03-02T06:09:05.291Z,14.63
2018-03-02T06:11:32.176Z,17.05
2018-03-02T06:13:59.250Z,14.50
2018-03-02T06:16:26.094Z,18.85
2018-03-02T06:18:52.910Z,17.58
2018-03-02T06:21:19.770Z,21.90
2018-03-02T06:23:46.579Z,15.07
2018-03-02T06:26:13.448Z,14.35
2018-03-02T06:28:40.283Z,13.38
2018-03-02T06:31:07.476Z,15.50
2018-03-02T06:33:34.328Z,17.75
2018-03-02T06:36:01.458Z,16.35
2018-03-02T06:38:28.331Z,18.60
2018-03-02T06:40:55.452Z,18.62
2018-03-02T06:43:22.312Z,17.45
2018-03-02T06:45:49.227Z,17.55
2018-03-02T06:48:16.286Z,15.52
2018-03-02T06:50:43.200Z,18.58
2018-03-02T06:53:10.061Z,17.62
2018-03-02T06:55:37.227Z,18.77
2018-03-02T06:58:04.121Z,16.55
2018-03-02T07:00:31.219Z,15.38
2018-03-02T07:02:58.059Z,16.30
2018-03-02T07:05:25.216Z,17.23
2018-03-02T07:07:52.289Z,19.23
2018-03-02T07:10:19.131Z,17.60
2018-03-02T07:12:46.008Z,16.25
2018-03-02T07:15:13.275Z,17.77
2018-03-02T07:17:40.123Z,21.77
2018-03-02T07:20:06.963Z,19.80
2018-03-02T07:22:33.820Z,20.75
2018-03-02T07:25:00.676Z,18.30
2018-03-02T07:27:27.562Z,18.20
2018-03-02T07:29:54.440Z,16.55
2018-03-02T07:32:21.639Z,18.17
2018-03-02T07:34:48.505Z,18.60
2018-03-02T07:37:15.367Z,23.00
2018-03-02T07:39:42.469Z,20.58
2018-03-02T07:42:09.708Z,20.05
2018-03-02T07:44:36.518Z,17.15
2018-03-02T07:47:03.694Z,17.35
2018-03-02T07:49:30.858Z,15.52
2018-03-02T07:51:57.743Z,19.23
2018-03-02T07:54:24.565Z,17.45
2018-03-02T07:56:51.423Z,17.02
2018-03-02T07:59:18.276Z,18.58
2018-03-02T08:01:45.387Z,19.33
2018-03-02T08:04:12.268Z,18.83
2018-03-02T08:06:39.090Z,21.53
2018-03-02T08:09:05.902Z,18.97
2018-03-02T08:11:32.762Z,20.70
2018-03-02T08:13:59.902Z,21.47
2018-03-02T08:16:26.752Z,19.30
2018-03-02T08:18:53.884Z,21.33
2018-03-02T08:21:20.722Z,20.85
2018-03-02T08:23:47.614Z,19.65
2018-03-02T08:26:14.499Z,20.50
2018-03-02T08:28:41.321Z,23.15
2018-03-02T08:31:08.511Z,18.67
2018-03-02T08:33:35.342Z,17.57
2018-03-02T08:36:02.403Z,19.80
2018-03-02T08:38:29.247Z,23.15
2018-03-02T08:40:56.798Z,20.05
2018-03-02T08:43:24.060Z,17.55
2018-03-02T08:45:50.910Z,20.58
2018-03-02T08:48:18.057Z,17.10
2018-03-02T08:50:44.878Z,19.42
2018-03-02T08:53:12.043Z,17.50
2018-03-02T08:55:39.194Z,19.90
2018-03-02T08:58:06.132Z,17.80
2018-03-02T09:00:33.300Z,15.05
2018-03-02T09:03:00.448Z,17.65
2018-03-02T09:05:27.262Z,18.33
2018-03-02T09:07:54.070Z,17.92
2018-03-02T09:10:20.962Z,23.58
2018-03-02T09:12:47.781Z,18.65
2018-03-02T09:15:14.587Z,19.10
2018-03-02T09:17:41.819Z,20.08
2018-03-02T09:20:08.630Z,17.12
2018-03-02T09:22:35.804Z,25.83
2018-03-02T09:25:02.680Z,15.85
2018-03-02T09:27:29.797Z,18.45
2018-03-02T09:29:56.635Z,16.55
2018-03-02T09:32:23.516Z,17.05
2018-03-02T09:34:50.636Z,18.70
2018-03-02T09:37:17.787Z,15.93
2018-03-02T09:39:44.930Z,16.12
2018-03-02T09:42:12.084Z,15.50
2018-03-02T09:44:39.000Z,14.90
2018-03-02T09:47:05.929Z,17.87
2018-03-02T09:49:32.769Z,14.02
2018-03-02T09:51:59.590Z,16.45
2018-03-02T09:54:26.663Z,17.70
2018-03-02T09:56:53.478Z,15.38
2018-03-02T09:59:20.668Z,14.50
2018-03-02T10:01:47.493Z,19.48
2018-03-02T10:04:14.344Z,15.18
2018-03-02T10:06:41.208Z,14.18
2018-03-02T10:09:08.072Z,16.25
2018-03-02T10:11:34.916Z,12.93
2018-03-02T10:14:01.784Z,12.95
2018-03-02T10:16:28.627Z,14.68
2018-03-02T10:18:55.756Z,16.70
2018-03-02T10:21:22.604Z,14.87
2018-03-02T10:23:49.438Z,13.60
2018-03-02T10:26:16.262Z,15.82
2018-03-02T10:28:43.437Z,14.85
2018-03-02T10:31:10.305Z,16.87
2018-03-02T10:33:37.197Z,17.35
2018-03-02T10:36:04.032Z,15.38
2018-03-02T10:38:31.021Z,13.55
2018-03-02T10:40:58.159Z,15.52
2018-03-02T10:43:25.072Z,16.58
2018-03-02T10:45:51.917Z,13.00
2018-03-02T10:48:19.104Z,16.87
2018-03-02T10:50:46.256Z,19.95
2018-03-02T10:53:13.131Z,14.38
2018-03-02T10:55:39.956Z,18.25
2018-03-02T10:58:07.092Z,15.80
2018-03-02T11:00:33.960Z,17.73
2018-03-02T11:03:00.840Z,16.23
2018-03-02T11:05:28.027Z,13.80
2018-03-02T11:07:55.181Z,14.45
2018-03-02T11:10:22.105Z,16.50
2018-03-02T11:12:48.933Z,15.68
2018-03-02T11:15:15.783Z,16.00
2018-03-02T11:17:42.629Z,14.40
2018-03-02T11:20:09.486Z,18.02
2018-03-02T11:22:36.643Z,14.90
2018-03-02T11:25:03.512Z,16.15
2018-03-02T11:27:30.342Z,18.05
2018-03-02T11:29:57.176Z,17.65
2018-03-02T11:32:23.987Z,17.53
2018-03-02T11:34:50.842Z,20.77
2018-03-02T11:37:17.694Z,20.02
2018-03-02T11:39:44.859Z,19.80
2018-03-02T11:42:12.002Z,19.67
2018-03-02T11:44:38.888Z,17.40
2018-03-02T11:47:06.007Z,18.30
2018-03-02T11:49:32.855Z,19.25
2018-03-02T11:51:59.902Z,20.83
2018-03-02T11:54:26.771Z,19.83
2018-03-02T11:56:53.623Z,21.80
2018-03-02T11:59:20.738Z,20.48
2018-03-02T12:01:47.874Z,21.12
2018-03-02T12:04:14.715Z,19.73
2018-03-02T12:06:41.567Z,19.27
2018-03-02T12:09:08.726Z,18.30
2018-03-02T12:11:35.560Z,18.17
2018-03-02T12:14:02.450Z,18.40
2018-03-02T12:16:29.660Z,18.77
2018-03-02T12:18:56.802Z,25.63
2018-03-02T12:21:23.686Z,17.57
2018-03-02T12:23:50.528Z,24.33
2018-03-02T12:26:17.412Z,18.45
2018-03-02T12:28:44.286Z,18.80
2018-03-02T12:31:11.114Z,18.02
2018-03-02T12:33:38.030Z,19.33
2018-03-02T12:36:05.224Z,20.27
2018-03-02T12:38:32.068Z,24.33
2018-03-02T12:40:58.890Z,20.62
2018-03-02T12:43:25.763Z,33.33
2018-03-02T12:45:52.669Z,19.37
2018-03-02T12:48:19.488Z,17.77
2018-03-02T12:50:46.387Z,20.85
2018-03-02T12:53:13.530Z,17.83
2018-03-02T12:55:40.680Z,21.35
2018-03-02T12:58:07.575Z,18.00
2018-03-02T13:00:34.437Z,18.17
2018-03-02T13:03:01.252Z,21.17
2018-03-02T13:05:28.156Z,17.83
2018-03-02T13:07:54.988Z,18.30
2018-03-02T13:10:22.047Z,17.23
2018-03-02T13:12:48.934Z,18.05
2018-03-02T13:15:15.811Z,16.52
2018-03-02T13:17:42.630Z,17.60
2018-03-02T13:20:09.827Z,17.00
2018-03-02T13:22:37.899Z,14.65
2018-03-02T13:25:05.057Z,17.45
2018-03-02T13:27:37.950Z,16.10
2018-03-02T13:30:04.788Z,21.40
2018-03-02T13:32:31.689Z,16.52
2018-03-02T13:35:04.820Z,17.25
2018-03-02T13:37:31.667Z,15.48
2018-03-02T13:40:04.528Z,16.40
2018-03-02T13:42:31.363Z,16.95
2018-03-02T13:44:58.434Z,19.20
2018-03-02T13:47:31.306Z,19.97
2018-03-02T13:50:01.120Z,21.35
2018-03-02T13:52:27.980Z,16.40
2018-03-02T13:54:55.129Z,16.73
2018-03-02T13:57:27.940Z,19.90
2018-03-02T13:59:54.800Z,18.27
2018-03-02T14:02:27.838Z,14.48
2018-03-02T14:05:02.564Z,16.50
2018-03-02T14:07:29.724Z,18.00
2018-03-02T14:09:56.866Z,19.00
2018-03-02T14:12:23.774Z,18.35
2018-03-02T14:14:50.680Z,15.98
2018-03-02T14:17:17.808Z,16.95
2018-03-02T14:19:44.739Z,17.98
2018-03-02T14:22:11.587Z,18.45
2018-03-02T14:24:38.402Z,16.20
2018-03-02T14:27:05.239Z,16.33
2018-03-02T14:29:32.080Z,18.92
2018-03-02T14:31:58.970Z,17.70
2018-03-02T14:34:25.850Z,18.20
2018-03-02T14:36:52.968Z,18.23
2018-03-02T14:39:19.829Z,17.20
2018-03-02T14:41:46.954Z,20.33
2018-03-02T14:44:13.775Z,18.73
2018-03-02T14:46:40.593Z,19.48
2018-03-02T14:49:07.464Z,18.70
2018-03-02T14:51:34.289Z,19.52
2018-03-02T14:54:01.114Z,16.63
2018-03-02T14:56:27.967Z,19.23
2018-03-02T14:58:54.790Z,18.05
2018-03-02T15:01:21.633Z,19.65
2018-03-02T15:03:48.475Z,18.80
2018-03-02T15:06:15.306Z,19.15
2018-03-02T15:08:42.796Z,15.15
2018-03-02T15:11:09.619Z,14.83
2018-03-02T15:13:36.500Z,18.93
2018-03-02T15:16:03.351Z,19.23
2018-03-02T15:18:30.536Z,15.33
2018-03-02T15:20:57.614Z,18.02
2018-03-02T15:23:24.442Z,15.18
2018-03-02T15:25:51.336Z,15.75
2018-03-02T15:28:18.371Z,16.50
2018-03-02T15:30:45.239Z,16.15
2018-03-02T15:33:12.148Z,14.55
2018-03-02T15:35:39.246Z,14.90
2018-03-02T15:38:06.063Z,14.02
2018-03-02T15:40:32.891Z,15.30
2018-03-02T15:42:59.736Z,13.60
2018-03-02T15:45:26.575Z,15.95
2018-03-02T15:47:53.666Z,15.80
2018-03-02T15:50:20.547Z,15.87
2018-03-02T15:52:47.963Z,14.90
2018-03-02T15:55:15.333Z,13.00
2018-03-02T15:57:42.495Z,11.00
2018-03-02T16:00:09.307Z,13.27
2018-03-02T16:02:36.222Z,12.10
2018-03-02T16:05:03.078Z,14.43
2018-03-02T16:07:29.891Z,14.13
2018-03-02T16:09:57.110Z,13.70
2018-03-02T16:12:24.159Z,13.98
2018-03-02T16:14:51.294Z,12.32
2018-03-02T16:17:18.456Z,12.97
2018-03-02T16:19:45.500Z,13.77
2018-03-02T16:22:12.642Z,11.07
2018-03-02T16:24:39.800Z,12.00
2018-03-02T16:27:06.640Z,11.38
2018-03-02T16:29:33.485Z,13.05
2018-03-02T16:32:00.401Z,12.23
2018-03-02T16:34:27.585Z,12.90
2018-03-02T16:36:54.643Z,13.20
2018-03-02T16:39:21.468Z,11.43
2018-03-02T16:41:48.312Z,11.73
2018-03-02T16:44:15.980Z,11.43
2018-03-02T16:46:42.855Z,11.52
2018-03-02T16:49:09.665Z,11.02
2018-03-02T16:51:36.500Z,10.75
2018-03-02T16:54:03.666Z,11.12
2018-03-02T16:56:30.808Z,11.53
2018-03-02T16:58:57.615Z,14.00
2018-03-02T17:01:24.808Z,12.77
2018-03-02T17:03:51.646Z,10.95
2018-03-02T17:06:18.491Z,13.77
2018-03-02T17:08:45.368Z,13.55
2018-03-02T17:11:12.191Z,10.82
2018-03-02T17:13:39.028Z,13.62
2018-03-02T17:16:05.855Z,11.55
2018-03-02T17:18:32.700Z,13.68
2018-03-02T17:20:59.799Z,18.60
2018-03-02T17:23:26.652Z,19.97
2018-03-02T17:25:53.499Z,13.90
2018-03-02T17:28:20.307Z,14.23
2018-03-02T17:30:47.139Z,14.20
2018-03-02T17:33:13.952Z,15.07
2018-03-02T17:35:40.792Z,15.73
2018-03-02T17:38:07.958Z,15.75
2018-03-02T17:40:34.779Z,15.63
2018-03-02T17:43:01.639Z,16.87
2018-03-02T17:45:28.506Z,20.95
2018-03-02T17:47:55.639Z,16.02
2018-03-02T17:50:22.480Z,12.63
2018-03-02T17:52:49.571Z,14.27
2018-03-02T17:55:16.417Z,15.35
2018-03-02T17:57:44.546Z,17.48
2018-03-02T18:00:11.398Z,14.73
2018-03-02T18:02:38.544Z,13.70
2018-03-02T18:05:05.375Z,15.35
2018-03-02T18:07:32.536Z,14.30
2018-03-02T18:09:59.366Z,16.17
2018-03-02T18:12:26.179Z,17.08
2018-03-02T18:14:53.060Z,17.45
2018-03-02T18:17:19.968Z,16.62
2018-03-02T18:19:47.165Z,16.20
2018-03-02T18:22:14.042Z,17.62
2018-03-02T18:24:40.885Z,15.52
2018-03-02T18:27:07.743Z,20.65
2018-03-02T18:29:34.660Z,15.80
2018-03-02T18:32:01.515Z,22.35
2018-03-02T18:34:28.632Z,18.90
2018-03-02T18:36:55.473Z,20.52
2018-03-02T18:39:22.349Z,19.63
2018-03-02T18:41:49.157Z,17.50
2018-03-02T18:44:16.264Z,18.87
2018-03-02T18:46:43.107Z,16.15
2018-03-02T18:49:09.930Z,14.87
2018-03-02T18:51:36.790Z,18.23
2018-03-02T18:54:03.618Z,17.50
2018-03-02T18:56:30.476Z,16.42
2018-03-02T18:58:57.681Z,17.62
2018-03-02T19:01:24.497Z,17.35
2018-03-02T19:03:51.346Z,18.92
2018-03-02T19:06:18.419Z,16.10
2018-03-02T19:08:45.306Z,15.52
2018-03-02T19:11:12.403Z,15.40
2018-03-02T19:13:39.282Z,15.80
2018-03-02T19:16:06.132Z,15.93
2018-03-02T19:18:33.239Z,19.52
2018-03-02T19:21:00.090Z,17.77
2018-03-02T19:23:26.927Z,17.67
2018-03-02T19:25:53.767Z,15.97
2018-03-02T19:28:20.656Z,17.10
2018-03-02T19:30:47.485Z,19.27
2018-03-02T19:33:14.620Z,17.30
2018-03-02T19:35:41.478Z,15.30
2018-03-02T19:38:08.594Z,18.25
2018-03-02T19:40:35.410Z,16.65
2018-03-02T19:43:02.296Z,19.75
2018-03-02T19:45:29.136Z,17.67
2018-03-02T19:47:55.989Z,19.10
2018-03-02T19:50:22.827Z,17.90
2018-03-02T19:52:49.651Z,17.42
2018-03-02T19:55:16.500Z,17.73
2018-03-02T19:57:43.425Z,18.65
2018-03-02T20:00:10.294Z,19.90
2018-03-02T20:02:37.118Z,17.35
2018-03-02T20:05:04.295Z,18.80
2018-03-02T20:07:31.112Z,14.87
2018-03-02T20:09:58.284Z,20.17
2018-03-02T20:12:25.430Z,18.00
2018-03-02T20:14:52.292Z,19.02
2018-03-02T20:17:19.131Z,16.00
2018-03-02T20:19:46.000Z,19.17
2018-03-02T20:22:12.864Z,16.10
2018-03-02T20:24:39.731Z,19.37
2018-03-02T20:27:06.606Z,23.27
2018-03-02T20:29:33.480Z,17.62
2018-03-02T20:32:00.344Z,18.70
2018-03-02T20:34:27.199Z,19.70
2018-03-02T20:36:54.023Z,32.90
2018-03-02T20:39:21.115Z,35.58
2018-03-02T20:41:47.960Z,37.75
2018-03-02T20:44:15.106Z,20.67
2018-03-02T20:47:08.519Z,20.70
2018-03-02T20:49:35.480Z,20.30
2018-03-02T20:52:02.302Z,18.20
2018-03-02T20:54:29.143Z,16.97
2018-03-02T20:56:55.958Z,19.90
2018-03-02T20:59:22.837Z,18.50
2018-03-02T21:01:49.694Z,17.77
2018-03-02T21:04:16.550Z,21.52
2018-03-02T21:06:43.355Z,20.95
2018-03-02T21:09:10.219Z,18.02
2018-03-02T21:11:37.051Z,21.05
2018-03-02T21:14:04.155Z,21.10
2018-03-02T21:16:30.991Z,22.02
2018-03-02T21:18:57.844Z,22.00
2018-03-02T21:21:25.008Z,21.00
2018-03-02T21:23:51.875Z,17.10
2018-03-02T21:26:18.687Z,18.75
2018-03-02T21:28:45.511Z,17.77
2018-03-02T21:31:12.672Z,19.33
2018-03-02T21:33:39.497Z,18.08
2018-03-02T21:36:06.327Z,22.33
2018-03-02T21:38:33.171Z,18.17
2018-03-02T21:41:00.246Z,23.98
2018-03-02T21:43:27.098Z,17.17
2018-03-02T21:45:54.239Z,19.10
2018-03-02T21:48:21.391Z,20.60
2018-03-02T21:50:48.215Z,18.90
2018-03-02T21:53:15.055Z,23.15
2018-03-02T21:55:42.232Z,20.95
2018-03-02T21:58:09.110Z,21.50
2018-03-02T22:00:35.936Z,18.77
2018-03-02T22:03:02.805Z,21.10
2018-03-02T22:05:29.627Z,20.35
2018-03-02T22:07:56.756Z,20.65
2018-03-02T22:10:23.612Z,22.02
2018-03-02T22:12:50.431Z,27.58
2018-03-02T22:15:17.336Z,22.40
2018-03-02T22:17:44.430Z,20.75
2018-03-02T22:20:11.591Z,18.10
2018-03-02T22:22:38.483Z,20.25
2018-03-02T22:25:05.352Z,19.27
2018-03-02T22:27:32.204Z,19.17
2018-03-02T22:29:59.062Z,23.38
2018-03-02T22:32:25.988Z,20.75
2018-03-02T22:34:52.795Z,21.90
2018-03-02T22:37:19.660Z,23.58
2018-03-02T22:39:46.844Z,18.30
2018-03-02T22:42:13.666Z,19.00
2018-03-02T22:44:40.836Z,19.85
2018-03-02T22:47:07.671Z,19.73
2018-03-02T22:49:34.798Z,20.17
2018-03-02T22:56:03.394Z,20.60
2018-03-02T22:58:30.214Z,21.58
2018-03-02T23:00:57.348Z,21.40
2018-03-02T23:03:24.590Z,21.97
2018-03-02T23:05:51.643Z,20.00
2018-03-02T23:08:18.784Z,19.85
2018-03-02T23:10:45.930Z,21.30
2018-03-02T23:13:13.085Z,20.17
2018-03-02T23:15:39.929Z,21.45
2018-03-02T23:18:06.779Z,22.23
2018-03-02T23:20:33.922Z,19.10
2018-03-02T23:23:00.783Z,21.27
2018-03-02T23:25:28.019Z,19.30
2018-03-02T23:27:54.838Z,19.80
2018-03-02T23:30:21.680Z,19.58
2018-03-02T23:32:48.584Z,22.45
2018-03-02T23:35:15.399Z,22.27
2018-03-02T23:37:42.230Z,19.67
2018-03-02T23:40:09.106Z,19.65
2018-03-02T23:42:36.224Z,18.83
2018-03-02T23:45:03.075Z,21.80
2018-03-02T23:47:30.216Z,20.50
2018-03-02T23:49:57.049Z,17.90
2018-03-02T23:52:24.211Z,21.35
2018-03-02T23:54:51.051Z,23.20
2018-03-02T23:57:18.207Z,21.70
2018-03-02T23:59:45.055Z,19.80
